createdAt,value
2018-03-26T00:00:06.068Z,8.10
2018-03-26T00:02:33.928Z,8.10
2018-03-26T00:05:01.388Z,8.00
2018-03-26T00:07:28.893Z,8.00
2018-03-26T00:09:56.322Z,8.00
2018-03-26T00:12:23.775Z,8.00
2018-03-26T00:17:41.186Z,7.90
2018-03-26T00:20:08.805Z,7.90
2018-03-26T00:22:36.322Z,7.80
2018-03-26T00:25:04.179Z,7.80
2018-03-26T00:27:32.160Z,7.70
2018-03-26T00:29:59.970Z,7.70
2018-03-26T00:32:27.408Z,7.50
2018-03-26T00:34:54.836Z,7.50
2018-03-26T00:37:22.238Z,7.50
2018-03-26T00:39:49.763Z,7.50
2018-03-26T00:42:17.566Z,7.50
2018-03-26T00:44:45.079Z,7.50
2018-03-26T00:47:13.164Z,7.50
2018-03-26T00:49:40.584Z,7.40
2018-03-26T00:52:08.004Z,7.30
2018-03-26T00:54:35.480Z,7.30
2018-03-26T00:57:03.557Z,7.30
2018-03-26T00:59:31.164Z,7.20
2018-03-26T01:01:59.127Z,7.20
2018-03-26T01:04:28.121Z,7.20
2018-03-26T01:06:56.091Z,7.10
2018-03-26T01:09:24.059Z,7.10
2018-03-26T01:11:51.620Z,7.00
2018-03-26T01:14:19.515Z,7.00
2018-03-26T01:16:47.046Z,7.00
2018-03-26T01:19:14.963Z,7.00
2018-03-26T01:21:42.474Z,7.10
2018-03-26T01:24:10.057Z,7.00
2018-03-26T01:26:37.694Z,7.10
2018-03-26T01:29:05.459Z,7.10
2018-03-26T01:31:33.078Z,7.00
2018-03-26T01:34:00.580Z,6.90
2018-03-26T01:36:28.427Z,6.90
2018-03-26T01:38:55.834Z,6.90
2018-03-26T01:41:23.242Z,6.80
2018-03-26T01:43:50.820Z,6.80
2018-03-26T01:46:18.484Z,6.80
2018-03-26T01:48:46.373Z,6.60
2018-03-26T01:51:13.780Z,6.60
2018-03-26T01:53:41.370Z,6.60
2018-03-26T01:56:09.204Z,6.40
2018-03-26T01:58:36.769Z,6.30
2018-03-26T02:01:04.274Z,6.30
2018-03-26T02:03:31.811Z,6.30
2018-03-26T02:05:59.371Z,6.40
2018-03-26T02:08:27.547Z,6.40
2018-03-26T02:10:55.517Z,6.50
2018-03-26T02:13:23.204Z,6.50
2018-03-26T02:15:50.595Z,6.40
2018-03-26T02:18:18.185Z,6.30
2018-03-26T02:20:46.165Z,6.20
2018-03-26T02:23:13.727Z,6.30
2018-03-26T02:25:41.700Z,6.40
2018-03-26T02:28:09.564Z,6.40
2018-03-26T02:30:37.536Z,6.50
2018-03-26T02:33:05.091Z,6.30
2018-03-26T02:35:33.065Z,6.30
2018-03-26T02:38:00.596Z,6.30
2018-03-26T02:40:28.089Z,6.20
2018-03-26T02:42:55.537Z,6.10
2018-03-26T02:45:23.097Z,6.00
2018-03-26T02:47:51.159Z,5.90
2018-03-26T02:50:18.670Z,6.00
2018-03-26T02:52:48.235Z,6.10
2018-03-26T02:55:16.252Z,5.90
2018-03-26T02:57:44.892Z,6.00
2018-03-26T03:00:12.452Z,6.10
2018-03-26T03:02:40.358Z,6.10
2018-03-26T03:05:08.288Z,6.20
2018-03-26T03:07:35.846Z,6.20
2018-03-26T03:10:03.878Z,6.10
2018-03-26T03:12:31.420Z,6.10
2018-03-26T03:14:58.958Z,6.10
2018-03-26T03:17:26.598Z,6.10
2018-03-26T03:19:54.501Z,6.10
2018-03-26T03:22:22.079Z,6.10
2018-03-26T03:24:49.517Z,6.00
2018-03-26T03:27:16.979Z,6.00
2018-03-26T03:29:44.432Z,5.90
2018-03-26T03:32:11.989Z,5.70
2018-03-26T03:34:39.621Z,5.70
2018-03-26T03:37:07.489Z,5.60
2018-03-26T03:39:35.458Z,5.60
2018-03-26T03:42:03.354Z,5.60
2018-03-26T03:44:31.092Z,5.60
2018-03-26T03:46:58.981Z,5.70
2018-03-26T03:49:26.516Z,5.70
2018-03-26T03:51:54.487Z,5.70
2018-03-26T03:54:22.407Z,5.70
2018-03-26T03:56:49.871Z,5.80
2018-03-26T03:59:17.421Z,5.90
2018-03-26T04:01:45.284Z,5.90
2018-03-26T04:04:12.719Z,5.80
2018-03-26T04:06:40.303Z,5.70
2018-03-26T04:09:07.980Z,5.60
2018-03-26T04:11:35.581Z,5.60
2018-03-26T04:14:03.551Z,5.40
2018-03-26T04:16:31.520Z,5.10
2018-03-26T04:18:59.336Z,5.30
2018-03-26T04:21:26.846Z,5.30
2018-03-26T04:23:54.816Z,5.40
2018-03-26T04:26:22.793Z,5.20
2018-03-26T04:28:50.757Z,5.30
2018-03-26T04:31:18.525Z,5.20
2018-03-26T04:33:46.385Z,5.10
2018-03-26T04:36:13.994Z,5.30
2018-03-26T04:38:41.608Z,5.40
2018-03-26T04:41:09.576Z,5.30
2018-03-26T04:43:37.051Z,5.30
2018-03-26T04:46:04.681Z,5.20
2018-03-26T04:48:32.157Z,5.20
2018-03-26T04:51:00.046Z,5.10
2018-03-26T04:53:27.528Z,5.10
2018-03-26T04:55:55.016Z,5.10
2018-03-26T04:58:22.622Z,5.00
2018-03-26T05:00:50.029Z,5.10
2018-03-26T05:03:17.404Z,5.00
2018-03-26T05:05:45.350Z,5.00
2018-03-26T05:08:13.972Z,5.00
2018-03-26T05:10:41.462Z,4.90
2018-03-26T05:13:09.411Z,5.10
2018-03-26T05:15:37.806Z,5.20
2018-03-26T05:18:05.634Z,5.30
2018-03-26T05:20:33.616Z,5.20
2018-03-26T05:23:01.168Z,5.30
2018-03-26T05:25:28.750Z,5.50
2018-03-26T05:27:56.206Z,5.30
2018-03-26T05:30:23.655Z,5.20
2018-03-26T05:32:51.612Z,5.20
2018-03-26T05:35:20.095Z,5.10
2018-03-26T05:37:48.065Z,5.30
2018-03-26T05:40:18.822Z,5.20
2018-03-26T05:42:46.702Z,5.10
2018-03-26T05:45:18.711Z,5.10
2018-03-26T05:47:46.208Z,5.20
2018-03-26T05:50:13.579Z,5.20
2018-03-26T05:52:41.105Z,5.00
2018-03-26T05:55:09.082Z,5.00
2018-03-26T05:57:36.972Z,4.80
2018-03-26T06:00:04.950Z,4.60
2018-03-26T06:02:32.471Z,4.80
2018-03-26T06:05:00.441Z,4.80
2018-03-26T06:07:28.195Z,4.90
2018-03-26T06:09:56.480Z,4.90
2018-03-26T06:12:24.286Z,4.80
2018-03-26T06:14:51.809Z,4.80
2018-03-26T06:17:19.782Z,4.80
2018-03-26T06:19:47.580Z,4.80
2018-03-26T06:22:15.206Z,4.80
2018-03-26T06:24:43.276Z,4.80
2018-03-26T06:27:11.683Z,4.70
2018-03-26T06:29:39.781Z,4.50
2018-03-26T06:32:07.188Z,4.40
2018-03-26T06:34:34.646Z,4.40
2018-03-26T06:40:04.273Z,4.50
2018-03-26T06:42:32.270Z,4.40
2018-03-26T06:44:59.802Z,4.50
2018-03-26T06:47:27.629Z,4.60
2018-03-26T06:49:55.142Z,4.40
2018-03-26T06:52:22.798Z,4.30
2018-03-26T06:54:50.269Z,4.30
2018-03-26T06:57:17.920Z,4.50
2018-03-26T06:59:45.469Z,4.60
2018-03-26T07:02:13.747Z,4.30
2018-03-26T07:04:41.621Z,4.40
2018-03-26T07:07:09.498Z,4.40
2018-03-26T07:09:37.064Z,4.50
2018-03-26T07:12:04.908Z,4.70
2018-03-26T07:14:32.876Z,4.70
2018-03-26T07:17:00.930Z,4.80
2018-03-26T07:19:28.428Z,4.60
2018-03-26T07:21:56.009Z,4.60
2018-03-26T07:24:23.526Z,4.70
2018-03-26T07:26:51.496Z,4.80
2018-03-26T07:29:19.465Z,4.80
2018-03-26T07:31:46.981Z,4.80
2018-03-26T07:34:14.495Z,4.70
2018-03-26T07:36:41.978Z,4.60
2018-03-26T07:39:09.716Z,4.70
2018-03-26T07:41:37.493Z,4.70
2018-03-26T07:44:05.279Z,4.80
2018-03-26T07:46:33.002Z,4.80
2018-03-26T07:49:01.198Z,4.60
2018-03-26T07:51:28.734Z,4.50
2018-03-26T07:53:56.826Z,4.70
2018-03-26T07:56:25.596Z,4.80
2018-03-26T07:58:53.570Z,4.80
2018-03-26T08:01:21.545Z,4.80
2018-03-26T08:03:49.510Z,4.60
2018-03-26T08:06:17.475Z,4.40
2018-03-26T08:08:45.577Z,4.60
2018-03-26T08:11:13.108Z,4.80
2018-03-26T08:13:40.565Z,4.70
2018-03-26T08:16:10.478Z,4.80
2018-03-26T08:18:38.271Z,4.70
2018-03-26T08:21:05.804Z,4.80
2018-03-26T08:23:33.774Z,5.00
2018-03-26T08:26:01.847Z,5.00
2018-03-26T08:28:29.633Z,5.00
2018-03-26T08:30:57.305Z,5.10
2018-03-26T08:33:25.041Z,5.30
2018-03-26T08:35:52.906Z,5.40
2018-03-26T08:38:20.874Z,5.40
2018-03-26T08:40:49.407Z,5.30
2018-03-26T08:43:18.048Z,5.10
2018-03-26T08:45:45.603Z,5.30
2018-03-26T08:48:13.123Z,5.40
2018-03-26T08:50:40.622Z,5.50
2018-03-26T08:53:08.712Z,5.50
2018-03-26T08:55:36.420Z,5.30
2018-03-26T08:58:04.022Z,5.50
2018-03-26T09:00:32.116Z,5.50
2018-03-26T09:02:59.536Z,5.60
2018-03-26T09:05:27.353Z,5.50
2018-03-26T09:07:55.073Z,5.60
2018-03-26T09:10:23.432Z,5.70
2018-03-26T09:12:51.088Z,5.80
2018-03-26T09:15:18.575Z,5.80
2018-03-26T09:17:46.848Z,5.90
2018-03-26T09:20:14.363Z,5.80
2018-03-26T09:22:41.972Z,5.90
2018-03-26T09:25:09.954Z,6.00
2018-03-26T09:27:37.936Z,6.10
2018-03-26T09:30:05.676Z,6.20
2018-03-26T09:32:33.549Z,6.10
2018-03-26T09:35:01.363Z,6.20
2018-03-26T09:37:28.775Z,6.20
2018-03-26T09:39:56.631Z,6.20
2018-03-26T09:42:24.706Z,6.30
2018-03-26T09:44:52.292Z,6.30
2018-03-26T09:47:19.697Z,6.40
2018-03-26T09:49:47.289Z,6.50
2018-03-26T09:52:15.137Z,6.50
2018-03-26T09:54:42.630Z,6.60
2018-03-26T09:57:10.167Z,6.60
2018-03-26T09:59:38.039Z,6.60
2018-03-26T10:02:06.006Z,6.60
2018-03-26T10:04:34.507Z,6.70
2018-03-26T10:07:02.051Z,6.80
2018-03-26T10:09:30.027Z,6.80
2018-03-26T10:11:57.441Z,6.90
2018-03-26T10:14:25.710Z,6.80
2018-03-26T10:16:53.722Z,6.80
2018-03-26T10:19:21.386Z,6.90
2018-03-26T10:21:49.880Z,6.90
2018-03-26T10:24:17.957Z,6.90
2018-03-26T10:26:45.346Z,6.90
2018-03-26T10:29:12.769Z,6.90
2018-03-26T10:31:40.150Z,7.10
2018-03-26T10:34:07.711Z,7.10
2018-03-26T10:36:35.529Z,7.20
2018-03-26T10:39:04.032Z,7.20
2018-03-26T10:41:31.501Z,7.20
2018-03-26T10:43:59.044Z,7.20
2018-03-26T10:46:26.597Z,7.30
2018-03-26T10:48:54.150Z,7.40
2018-03-26T10:51:22.039Z,7.40
2018-03-26T10:53:50.053Z,7.50
2018-03-26T10:56:18.266Z,7.50
2018-03-26T10:58:46.390Z,7.60
2018-03-26T11:01:13.926Z,7.60
2018-03-26T11:03:41.588Z,7.70
2018-03-26T11:06:09.227Z,7.60
2018-03-26T11:08:37.326Z,7.70
2018-03-26T11:11:04.914Z,7.70
2018-03-26T11:13:32.712Z,7.70
2018-03-26T11:16:00.312Z,7.90
2018-03-26T11:18:27.948Z,8.10
2018-03-26T11:20:56.061Z,8.20
2018-03-26T11:23:23.784Z,8.30
2018-03-26T11:25:52.616Z,8.30
2018-03-26T11:28:20.586Z,8.50
2018-03-26T11:30:48.201Z,8.50
2018-03-26T11:33:16.030Z,8.60
2018-03-26T11:35:43.483Z,8.70
2018-03-26T11:38:11.044Z,8.80
2018-03-26T11:40:39.261Z,8.80
2018-03-26T11:43:07.080Z,9.00
2018-03-26T11:45:34.695Z,9.00
2018-03-26T11:48:02.249Z,9.10
2018-03-26T11:50:29.807Z,9.10
2018-03-26T11:52:57.670Z,9.20
2018-03-26T11:55:25.237Z,9.30
2018-03-26T11:57:53.054Z,9.40
2018-03-26T12:00:20.661Z,9.40
2018-03-26T12:02:48.569Z,9.40
2018-03-26T12:05:16.603Z,9.30
2018-03-26T12:07:44.677Z,9.30
2018-03-26T12:10:12.378Z,9.30
2018-03-26T12:12:40.004Z,9.30
2018-03-26T12:15:07.972Z,9.40
2018-03-26T12:17:35.940Z,9.50
2018-03-26T12:20:16.046Z,9.30
2018-03-26T12:22:43.660Z,9.30
2018-03-26T12:25:14.321Z,9.50
2018-03-26T12:27:53.930Z,9.70
2018-03-26T12:30:25.903Z,9.80
2018-03-26T12:32:53.525Z,9.80
2018-03-26T12:35:33.045Z,9.90
2018-03-26T12:38:00.563Z,9.90
2018-03-26T12:40:39.728Z,10.00
2018-03-26T12:43:07.248Z,10.00
2018-03-26T12:45:46.824Z,10.10
2018-03-26T12:48:14.351Z,10.20
2018-03-26T12:50:54.094Z,10.20
2018-03-26T12:53:21.976Z,10.20
2018-03-26T12:55:49.429Z,10.30
2018-03-26T12:58:28.559Z,10.30
2018-03-26T13:01:07.991Z,10.40
2018-03-26T13:03:36.065Z,10.40
2018-03-26T13:06:04.014Z,10.60
2018-03-26T13:08:31.459Z,10.60
2018-03-26T13:10:59.106Z,10.50
2018-03-26T13:13:26.607Z,10.60
2018-03-26T13:15:54.092Z,10.60
2018-03-26T13:18:21.535Z,10.70
2018-03-26T13:20:49.392Z,10.80
2018-03-26T13:23:16.806Z,10.80
2018-03-26T13:25:44.716Z,10.80
2018-03-26T13:28:12.638Z,10.80
2018-03-26T13:30:40.061Z,10.80
2018-03-26T13:33:07.566Z,10.90
2018-03-26T13:35:35.390Z,10.90
2018-03-26T13:38:02.926Z,10.80
2018-03-26T13:40:30.690Z,10.80
2018-03-26T13:42:58.663Z,10.90
2018-03-26T13:45:26.162Z,10.90
2018-03-26T13:47:53.778Z,11.00
2018-03-26T13:50:21.444Z,11.00
2018-03-26T13:52:49.426Z,11.10
2018-03-26T13:55:16.984Z,11.10
2018-03-26T13:57:44.504Z,11.20
2018-03-26T14:00:12.127Z,11.20
2018-03-26T14:02:39.905Z,11.30
2018-03-26T14:05:11.484Z,11.30
2018-03-26T14:07:39.408Z,11.40
2018-03-26T14:10:18.621Z,11.50
2018-03-26T14:12:58.100Z,11.40
2018-03-26T14:15:37.337Z,11.30
2018-03-26T14:18:05.557Z,11.40
2018-03-26T14:20:33.359Z,11.30
2018-03-26T14:23:00.806Z,11.40
2018-03-26T14:25:28.231Z,11.30
2018-03-26T14:27:55.665Z,11.30
2018-03-26T14:30:23.085Z,11.20
2018-03-26T14:32:50.616Z,11.20
2018-03-26T14:38:20.968Z,11.20
2018-03-26T14:40:48.731Z,11.30
2018-03-26T14:43:16.572Z,11.20
2018-03-26T14:45:44.156Z,11.30
2018-03-26T14:48:12.133Z,11.40
2018-03-26T14:50:39.687Z,11.50
2018-03-26T14:53:07.724Z,11.70
2018-03-26T14:55:35.593Z,11.80
2018-03-26T14:58:04.245Z,11.70
2018-03-26T15:00:31.767Z,11.70
2018-03-26T15:02:59.841Z,11.70
2018-03-26T15:05:27.912Z,11.80
2018-03-26T15:07:59.875Z,11.60
2018-03-26T15:10:27.743Z,11.50
2018-03-26T15:12:55.710Z,11.60
2018-03-26T15:15:23.680Z,11.70
2018-03-26T15:17:51.649Z,11.80
2018-03-26T15:20:19.587Z,12.10
2018-03-26T15:22:47.215Z,12.40
2018-03-26T15:25:14.739Z,12.30
2018-03-26T15:27:42.621Z,12.50
2018-03-26T15:30:10.031Z,12.50
2018-03-26T15:32:37.421Z,12.70
2018-03-26T15:35:05.389Z,12.90
2018-03-26T15:37:33.361Z,13.00
2018-03-26T15:40:00.884Z,13.00
2018-03-26T15:42:28.430Z,13.00
2018-03-26T15:44:55.936Z,12.90
2018-03-26T15:47:24.121Z,13.00
2018-03-26T15:49:52.721Z,12.90
2018-03-26T15:52:20.256Z,12.90
2018-03-26T15:54:48.172Z,12.70
2018-03-26T15:57:15.613Z,12.60
2018-03-26T15:59:43.243Z,12.50
2018-03-26T16:02:10.807Z,12.40
2018-03-26T16:04:38.592Z,12.40
2018-03-26T16:07:06.025Z,12.30
2018-03-26T16:09:34.259Z,12.30
2018-03-26T16:12:02.072Z,12.20
2018-03-26T16:14:30.042Z,12.10
2018-03-26T16:16:58.011Z,12.00
2018-03-26T16:19:25.694Z,11.90
2018-03-26T16:21:53.165Z,11.90
2018-03-26T16:24:20.688Z,11.80
2018-03-26T16:26:48.771Z,11.70
2018-03-26T16:29:16.993Z,11.20
2018-03-26T16:31:44.456Z,11.10
2018-03-26T16:34:12.601Z,10.90
2018-03-26T16:36:40.296Z,10.80
2018-03-26T16:39:08.008Z,10.60
2018-03-26T16:41:47.736Z,10.50
2018-03-26T16:44:15.762Z,10.60
2018-03-26T16:46:43.251Z,10.60
2018-03-26T16:49:10.656Z,10.60
2018-03-26T16:51:38.286Z,10.50
2018-03-26T16:54:06.158Z,10.40
2018-03-26T16:56:34.028Z,10.40
2018-03-26T16:59:01.922Z,10.30
2018-03-26T17:01:29.328Z,10.20
2018-03-26T17:03:56.943Z,10.10
2018-03-26T17:06:24.914Z,10.00
2018-03-26T17:08:52.730Z,10.00
2018-03-26T17:11:20.236Z,9.90
2018-03-26T17:13:48.144Z,9.80
2018-03-26T17:16:15.585Z,9.80
2018-03-26T17:18:44.589Z,9.80
2018-03-26T17:21:12.216Z,9.70
2018-03-26T17:23:41.036Z,9.60
2018-03-26T17:26:08.877Z,9.60
2018-03-26T17:28:36.799Z,9.50
2018-03-26T17:31:04.402Z,9.50
2018-03-26T17:33:34.315Z,9.40
2018-03-26T17:36:02.496Z,9.40
2018-03-26T17:38:30.462Z,9.30
2018-03-26T17:40:58.431Z,9.30
2018-03-26T17:43:26.470Z,9.20
2018-03-26T17:45:54.174Z,9.20
2018-03-26T17:48:22.079Z,9.10
2018-03-26T17:50:49.490Z,9.00
2018-03-26T17:53:17.426Z,9.00
2018-03-26T17:55:48.532Z,8.90
2018-03-26T17:58:16.269Z,8.90
2018-03-26T18:00:43.889Z,8.80
2018-03-26T18:03:11.535Z,8.70
2018-03-26T18:05:39.152Z,8.70
2018-03-26T18:08:07.120Z,8.70
2018-03-26T18:10:35.090Z,8.60
2018-03-26T18:13:04.187Z,8.50
2018-03-26T18:15:32.076Z,8.50
2018-03-26T18:17:59.614Z,8.40
2018-03-26T18:20:27.586Z,8.40
2018-03-26T18:22:55.963Z,8.40
2018-03-26T18:25:23.731Z,8.30
2018-03-26T18:27:51.642Z,8.30
2018-03-26T18:30:21.345Z,8.20
2018-03-26T18:32:48.865Z,8.20
2018-03-26T18:35:16.854Z,8.20
2018-03-26T18:37:44.394Z,8.10
2018-03-26T18:40:12.299Z,8.10
2018-03-26T18:42:40.132Z,8.00
2018-03-26T18:45:07.893Z,7.90
2018-03-26T18:47:35.867Z,7.80
2018-03-26T18:50:03.435Z,7.80
2018-03-26T18:52:30.982Z,7.70
2018-03-26T18:54:59.569Z,7.60
2018-03-26T18:57:27.738Z,7.60
2018-03-26T18:59:55.411Z,7.50
2018-03-26T19:02:23.243Z,7.40
2018-03-26T19:04:51.344Z,7.40
2018-03-26T19:07:19.139Z,7.30
2018-03-26T19:09:46.888Z,7.20
2018-03-26T19:12:14.540Z,7.20
2018-03-26T19:14:42.435Z,7.10
2018-03-26T19:17:10.068Z,7.00
2018-03-26T19:19:38.069Z,6.90
2018-03-26T19:22:06.073Z,6.90
2018-03-26T19:24:33.485Z,6.80
2018-03-26T19:27:01.023Z,6.80
2018-03-26T19:29:28.996Z,6.70
2018-03-26T19:31:57.067Z,6.70
2018-03-26T19:34:24.631Z,6.60
2018-03-26T19:36:52.644Z,6.50
2018-03-26T19:39:20.156Z,6.50
2018-03-26T19:41:48.231Z,6.40
2018-03-26T19:44:15.924Z,6.30
2018-03-26T19:46:43.656Z,6.30
2018-03-26T19:49:11.594Z,6.20
2018-03-26T19:51:39.595Z,6.10
2018-03-26T19:54:07.611Z,6.10
2018-03-26T19:56:35.328Z,6.00
2018-03-26T19:59:03.405Z,6.00
2018-03-26T20:01:31.385Z,6.00
2018-03-26T20:03:59.036Z,5.90
2018-03-26T20:06:27.210Z,5.80
2018-03-26T20:08:55.179Z,5.80
2018-03-26T20:11:23.044Z,5.70
2018-03-26T20:13:51.033Z,5.70
2018-03-26T20:16:18.610Z,5.60
2018-03-26T20:18:46.266Z,5.60
2018-03-26T20:21:13.900Z,5.50
2018-03-26T20:23:42.588Z,5.50
2018-03-26T20:26:10.356Z,5.50
2018-03-26T20:28:38.120Z,5.40
2018-03-26T20:31:06.751Z,5.30
2018-03-26T20:33:34.365Z,5.30
2018-03-26T20:36:02.041Z,5.20
2018-03-26T20:38:29.659Z,5.20
2018-03-26T20:40:57.354Z,5.10
2018-03-26T20:43:25.014Z,5.10
2018-03-26T20:45:52.994Z,5.10
2018-03-26T20:48:20.649Z,5.10
2018-03-26T20:50:48.243Z,5.00
2018-03-26T20:53:15.745Z,5.00
2018-03-26T20:55:43.364Z,4.90
2018-03-26T20:58:10.883Z,4.90
2018-03-26T21:00:38.529Z,4.80
2018-03-26T21:03:06.049Z,4.80
2018-03-26T21:05:33.679Z,4.80
2018-03-26T21:08:01.171Z,4.70
2018-03-26T21:10:28.788Z,4.70
2018-03-26T21:12:56.642Z,4.60
2018-03-26T21:15:24.212Z,4.60
2018-03-26T21:17:52.241Z,4.60
2018-03-26T21:20:19.844Z,4.60
2018-03-26T21:22:47.918Z,4.50
2018-03-26T21:25:15.891Z,4.50
2018-03-26T21:27:43.686Z,4.50
2018-03-26T21:30:11.112Z,4.40
2018-03-26T21:32:38.597Z,4.40
2018-03-26T21:35:06.134Z,4.40
2018-03-26T21:37:33.592Z,4.40
2018-03-26T21:40:01.587Z,4.30
2018-03-26T21:42:29.217Z,4.30
2018-03-26T21:44:58.168Z,4.30
2018-03-26T21:47:25.587Z,4.20
2018-03-26T21:49:53.056Z,4.20
2018-03-26T21:52:20.585Z,4.20
2018-03-26T21:54:48.557Z,4.20
2018-03-26T21:57:16.632Z,4.10
2018-03-26T21:59:44.799Z,4.10
2018-03-26T22:02:12.772Z,4.00
2018-03-26T22:04:40.738Z,4.00
2018-03-26T22:07:08.913Z,4.00
2018-03-26T22:09:36.827Z,3.90
2018-03-26T22:12:04.369Z,3.90
2018-03-26T22:14:32.003Z,3.90
2018-03-26T22:16:59.923Z,3.90
2018-03-26T22:19:27.434Z,3.80
2018-03-26T22:21:55.413Z,3.80
2018-03-26T22:24:23.377Z,3.80
2018-03-26T22:26:51.340Z,3.80
2018-03-26T22:29:19.206Z,3.70
2018-03-26T22:31:47.075Z,3.70
2018-03-26T22:34:14.942Z,3.70
2018-03-26T22:36:42.808Z,3.70
2018-03-26T22:39:10.622Z,3.60
2018-03-26T22:41:38.136Z,3.60
2018-03-26T22:44:06.109Z,3.60
2018-03-26T22:46:33.971Z,3.60
2018-03-26T22:49:01.823Z,3.50
2018-03-26T22:51:29.300Z,3.50
2018-03-26T22:53:57.603Z,3.50
2018-03-26T22:56:25.134Z,3.50
2018-03-26T22:58:52.934Z,3.40
2018-03-26T23:01:20.562Z,3.40
2018-03-26T23:03:48.023Z,3.40
2018-03-26T23:06:15.511Z,3.30
2018-03-26T23:08:43.046Z,3.30
2018-03-26T23:11:11.006Z,3.30
2018-03-26T23:13:38.975Z,3.30
2018-03-26T23:16:06.945Z,3.30
2018-03-26T23:18:34.915Z,3.20
2018-03-26T23:21:02.883Z,3.20
2018-03-26T23:23:30.755Z,3.10
2018-03-26T23:25:58.649Z,3.10
2018-03-26T23:28:26.182Z,3.10
2018-03-26T23:30:54.087Z,3.00
2018-03-26T23:33:21.612Z,3.00
2018-03-26T23:35:49.506Z,3.00
2018-03-26T23:38:17.035Z,3.00
2018-03-26T23:40:44.941Z,2.90
2018-03-26T23:43:12.499Z,2.90
2018-03-26T23:45:40.120Z,2.90
2018-03-26T23:48:07.988Z,2.90
2018-03-26T23:50:35.960Z,2.80
2018-03-26T23:53:04.131Z,2.80
2018-03-26T23:55:32.108Z,2.80
2018-03-26T23:57:59.986Z,2.70
